createdAt,value
2023-02-14T00:05:03.586Z,36.33
2023-02-14T00:10:07.798Z,36.42
2023-02-14T00:15:25.110Z,36.37
2023-02-14T00:20:29.109Z,35.33
2023-02-14T00:25:32.032Z,36.67
2023-02-14T00:30:37.203Z,37.20
2023-02-14T00:35:41.093Z,35.67
2023-02-14T00:40:43.999Z,35.73
2023-02-14T00:45:48.311Z,35.23
2023-02-14T00:51:05.471Z,34.93
2023-02-14T00:56:09.390Z,38.93
2023-02-14T01:01:14.812Z,37.57
2023-02-14T01:06:18.339Z,37.37
2023-02-14T01:11:23.801Z,36.07
2023-02-14T01:16:30.663Z,34.83
2023-02-14T01:21:34.755Z,34.53
2023-02-14T01:26:37.699Z,34.40
2023-02-14T01:31:42.070Z,34.43
2023-02-14T01:36:45.080Z,35.10
2023-02-14T01:41:49.739Z,34.80
2023-02-14T01:46:54.171Z,33.93
2023-02-14T01:52:04.289Z,34.53
2023-02-14T01:57:10.720Z,34.50
2023-02-14T02:02:23.436Z,34.80
2023-02-14T02:07:28.543Z,34.80
2023-02-14T02:12:35.694Z,34.47
2023-02-14T02:17:49.958Z,35.20
2023-02-14T02:23:26.299Z,33.50
2023-02-14T02:28:55.476Z,34.13
2023-02-14T02:34:30.429Z,37.60
2023-02-14T02:39:54.925Z,34.03
2023-02-14T02:45:12.180Z,33.50
2023-02-14T02:50:42.416Z,33.30
2023-02-14T02:56:11.786Z,33.93
2023-02-14T03:01:20.314Z,33.70
2023-02-14T03:06:25.446Z,33.43
2023-02-14T03:11:30.349Z,33.03
2023-02-14T03:16:49.777Z,33.20
2023-02-14T03:21:57.596Z,33.77
2023-02-14T03:27:07.177Z,32.87
2023-02-14T03:32:16.992Z,33.60
2023-02-14T03:37:27.384Z,33.17
2023-02-14T03:42:37.774Z,38.30
2023-02-14T03:47:44.133Z,33.33
2023-02-14T03:52:50.660Z,32.83
2023-02-14T03:58:02.232Z,34.07
2023-02-14T04:03:11.860Z,33.37
2023-02-14T04:08:22.402Z,33.73
2023-02-14T04:13:26.996Z,33.83
2023-02-14T04:18:47.443Z,33.27
2023-02-14T04:23:50.317Z,32.90
2023-02-14T04:28:54.549Z,33.80
2023-02-14T04:33:57.394Z,34.07
2023-02-14T04:39:00.214Z,32.70
2023-02-14T04:44:04.405Z,32.60
2023-02-14T04:49:07.319Z,34.43
2023-02-14T04:54:10.652Z,34.23
2023-02-14T04:59:15.223Z,34.97
2023-02-14T05:04:18.211Z,35.00
2023-02-14T05:09:21.173Z,36.57
2023-02-14T05:14:27.492Z,33.00
2023-02-14T05:19:30.398Z,32.53
2023-02-14T05:24:33.353Z,33.43
2023-02-14T05:29:37.584Z,33.17
2023-02-14T05:34:40.474Z,33.10
2023-02-14T05:39:43.341Z,33.47
2023-02-14T05:44:48.684Z,33.80
2023-02-14T05:49:51.547Z,33.47
2023-02-14T05:54:54.570Z,32.60
2023-02-14T05:59:58.805Z,33.50
2023-02-14T06:05:02.875Z,33.37
2023-02-14T06:10:09.756Z,33.23
2023-02-14T06:15:13.967Z,53.10
2023-02-14T06:20:16.758Z,35.92
2023-02-14T06:25:20.208Z,33.83
2023-02-14T06:30:24.864Z,36.03
2023-02-14T06:35:27.833Z,38.00
2023-02-14T06:40:30.796Z,34.30
2023-02-14T06:45:34.943Z,34.00
2023-02-14T06:50:38.098Z,33.47
2023-02-14T06:55:42.957Z,32.80
2023-02-14T07:00:48.298Z,32.60
2023-02-14T07:05:51.117Z,34.37
2023-02-14T07:10:57.192Z,33.10
2023-02-14T07:16:01.611Z,34.73
2023-02-14T07:21:04.695Z,33.67
2023-02-14T07:26:07.536Z,33.47
2023-02-14T07:31:11.875Z,32.50
2023-02-14T07:36:14.788Z,32.43
2023-02-14T07:41:17.585Z,32.80
2023-02-14T07:46:21.778Z,33.43
2023-02-14T07:51:24.656Z,35.00
2023-02-14T07:56:27.614Z,33.33
2023-02-14T08:01:31.840Z,34.60
2023-02-14T08:06:34.977Z,33.53
2023-02-14T08:11:55.379Z,34.20
2023-02-14T08:16:59.539Z,33.67
2023-02-14T08:22:02.397Z,33.73
2023-02-14T08:27:05.433Z,33.50
2023-02-14T08:32:09.694Z,35.60
2023-02-14T08:37:12.597Z,34.37
2023-02-14T08:42:15.426Z,34.77
2023-02-14T08:47:19.613Z,33.67
2023-02-14T08:52:22.499Z,32.77
2023-02-14T08:57:27.739Z,33.87
2023-02-14T09:02:31.955Z,34.30
2023-02-14T09:07:34.871Z,34.90
2023-02-14T09:12:40.145Z,34.70
2023-02-14T09:17:44.409Z,33.53
2023-02-14T09:22:48.817Z,33.77
2023-02-14T09:27:51.824Z,36.57
2023-02-14T09:32:56.091Z,33.40
2023-02-14T09:38:16.554Z,35.73
2023-02-14T09:43:24.469Z,35.17
2023-02-14T09:48:33.390Z,34.43
2023-02-14T09:53:40.589Z,34.23
2023-02-14T09:58:50.845Z,35.33
2023-02-14T10:04:17.133Z,35.30
2023-02-14T10:09:41.187Z,34.80
2023-02-14T10:14:44.615Z,34.53
2023-02-14T10:19:53.129Z,35.10
2023-02-14T10:25:01.197Z,35.47
2023-02-14T10:30:13.912Z,35.93
2023-02-14T10:35:30.793Z,35.47
2023-02-14T10:40:46.061Z,35.83
2023-02-14T10:45:56.513Z,36.53
2023-02-14T10:51:07.714Z,35.73
2023-02-14T10:56:20.017Z,37.10
2023-02-14T11:01:23.469Z,34.83
2023-02-14T11:06:28.076Z,35.77
2023-02-14T11:11:36.562Z,36.20
2023-02-14T11:16:39.871Z,36.23
2023-02-14T11:21:46.877Z,37.87
2023-02-14T11:26:52.904Z,44.03
2023-02-14T11:31:56.582Z,39.07
2023-02-14T11:37:01.657Z,38.67
2023-02-14T11:42:06.544Z,39.13
2023-02-14T11:47:41.436Z,37.67
2023-02-14T11:52:51.927Z,38.50
2023-02-14T11:57:55.930Z,38.13
2023-02-14T12:03:00.731Z,38.70
2023-02-14T12:08:08.066Z,39.57
2023-02-14T12:13:25.026Z,39.47
2023-02-14T12:18:48.012Z,37.80
2023-02-14T12:24:01.385Z,39.87
2023-02-14T12:29:14.101Z,38.50
2023-02-14T12:34:18.900Z,40.70
2023-02-14T12:39:33.849Z,40.87
2023-02-14T12:44:44.835Z,39.10
2023-02-14T12:50:19.086Z,40.03
2023-02-14T12:55:41.695Z,40.07
2023-02-14T13:00:54.214Z,41.07
2023-02-14T13:06:05.589Z,41.30
2023-02-14T13:11:18.779Z,42.90
2023-02-14T13:16:27.735Z,41.40
2023-02-14T13:21:35.118Z,42.03
2023-02-14T13:26:41.374Z,40.37
2023-02-14T13:31:44.496Z,40.93
2023-02-14T13:36:48.077Z,40.30
2023-02-14T13:41:52.274Z,40.60
2023-02-14T13:46:55.183Z,39.70
2023-02-14T13:52:01.111Z,40.27
2023-02-14T13:57:27.960Z,41.43
2023-02-14T14:02:33.813Z,41.90
2023-02-14T14:07:36.901Z,41.70
2023-02-14T14:12:43.549Z,42.60
2023-02-14T14:17:50.248Z,43.63
2023-02-14T14:22:56.171Z,44.13
2023-02-14T14:28:01.101Z,42.47
2023-02-14T14:33:14.801Z,42.57
2023-02-14T14:38:17.647Z,42.73
2023-02-14T14:43:27.956Z,44.53
2023-02-14T14:48:33.294Z,43.80
2023-02-14T14:53:44.375Z,43.17
2023-02-14T14:58:48.772Z,42.07
2023-02-14T15:03:51.720Z,44.47
2023-02-14T15:08:54.819Z,42.20
2023-02-14T15:13:59.047Z,43.77
2023-02-14T15:19:08.069Z,47.17
2023-02-14T15:24:16.108Z,43.67
2023-02-14T15:29:25.992Z,43.93
2023-02-14T15:34:31.718Z,43.70
2023-02-14T15:39:38.999Z,44.30
2023-02-14T15:44:43.314Z,45.20
2023-02-14T15:49:47.461Z,46.57
2023-02-14T15:54:50.485Z,44.20
2023-02-14T15:59:56.274Z,44.10
2023-02-14T16:05:08.919Z,50.23
2023-02-14T16:10:22.850Z,44.00
2023-02-14T16:15:29.104Z,44.17
2023-02-14T16:20:43.489Z,47.93
2023-02-14T16:25:46.809Z,45.77
2023-02-14T16:30:57.644Z,44.87
2023-02-14T16:36:06.414Z,46.13
2023-02-14T16:41:17.090Z,42.43
2023-02-14T16:46:24.482Z,51.40
2023-02-14T16:51:37.122Z,43.63
2023-02-14T16:56:44.028Z,46.00
2023-02-14T17:01:48.779Z,44.20
2023-02-14T17:06:54.681Z,43.93
2023-02-14T17:12:02.617Z,46.50
2023-02-14T17:17:06.879Z,44.17
2023-02-14T17:22:10.300Z,46.10
2023-02-14T17:27:13.104Z,50.37
2023-02-14T17:32:17.407Z,44.17
2023-02-14T17:37:20.431Z,50.87
2023-02-14T17:42:23.593Z,49.10
2023-02-14T17:47:27.976Z,43.77
2023-02-14T17:52:31.141Z,45.50
2023-02-14T17:57:34.112Z,45.20
2023-02-14T18:02:38.558Z,49.13
2023-02-14T18:07:43.080Z,45.97
2023-02-14T18:12:45.996Z,46.60
2023-02-14T18:17:51.496Z,50.60
2023-02-14T18:22:54.319Z,43.80
2023-02-14T18:28:04.520Z,45.57
2023-02-14T18:33:08.741Z,46.80
2023-02-14T18:38:12.501Z,45.47
2023-02-14T18:43:17.412Z,42.90
2023-02-14T18:48:21.606Z,45.97
2023-02-14T18:53:24.775Z,44.37
2023-02-14T18:58:27.787Z,42.33
2023-02-14T19:03:33.462Z,39.13
2023-02-14T19:08:40.086Z,43.53
2023-02-14T19:13:46.028Z,42.27
2023-02-14T19:18:50.979Z,42.00
2023-02-14T19:23:57.067Z,40.87
2023-02-14T19:29:01.897Z,39.60
2023-02-14T19:34:08.387Z,41.70
2023-02-14T19:39:12.462Z,41.80
2023-02-14T19:44:17.939Z,41.27
2023-02-14T19:49:22.803Z,41.67
2023-02-14T19:54:26.504Z,41.67
2023-02-14T19:59:32.433Z,41.90
2023-02-14T20:04:37.016Z,41.10
2023-02-14T20:09:39.821Z,43.10
2023-02-14T20:14:51.250Z,42.87
2023-02-14T20:19:56.318Z,42.03
2023-02-14T20:25:02.317Z,42.50
2023-02-14T20:30:06.310Z,48.47
2023-02-14T20:35:10.787Z,44.03
2023-02-14T20:40:13.957Z,42.07
2023-02-14T20:45:17.192Z,42.57
2023-02-14T20:50:21.351Z,42.03
2023-02-14T20:55:24.178Z,42.30
2023-02-14T21:00:27.863Z,41.27
2023-02-14T21:05:32.227Z,42.77
2023-02-14T21:10:35.263Z,41.50
2023-02-14T21:15:40.197Z,42.43
2023-02-14T21:20:44.577Z,41.87
2023-02-14T21:25:47.426Z,41.50
2023-02-14T21:30:50.362Z,40.90
2023-02-14T21:35:55.192Z,41.87
2023-02-14T21:41:04.226Z,43.43
2023-02-14T21:46:08.367Z,41.83
2023-02-14T21:51:12.549Z,42.40
2023-02-14T21:56:19.598Z,43.27
2023-02-14T22:01:24.607Z,42.67
2023-02-14T22:06:29.403Z,42.50
2023-02-14T22:11:32.444Z,42.47
2023-02-14T22:16:38.136Z,41.67
2023-02-14T22:21:43.466Z,41.73
2023-02-14T22:26:46.324Z,41.50
2023-02-14T22:31:49.243Z,39.40
2023-02-14T22:36:53.467Z,39.97
2023-02-14T22:41:56.367Z,40.87
2023-02-14T22:46:59.230Z,40.03
2023-02-14T22:52:03.411Z,40.37
2023-02-14T22:57:06.301Z,40.63
2023-02-14T23:02:11.045Z,39.73
2023-02-14T23:07:15.200Z,39.07
2023-02-14T23:12:35.868Z,40.20
2023-02-14T23:17:56.379Z,41.37
2023-02-14T23:23:00.552Z,40.03
2023-02-14T23:28:03.396Z,40.83
2023-02-14T23:33:06.280Z,39.83
2023-02-14T23:38:10.715Z,39.50
2023-02-14T23:43:13.567Z,39.60
2023-02-14T23:48:16.402Z,40.37
2023-02-14T23:53:20.556Z,39.37
2023-02-14T23:58:23.413Z,40.40
